Terminal Aerodrome Forecast
Issued by NWS Sterling, VA

Current Version | Previous Version | Text Only | Print | Product List | Glossary Off
Versions: 1 2 3 4 5 6 7 8 9 10 11 12 13 14 15 16 17 18 19 20 21 22 23 24 25 26

068
FTUS41 KLWX 202320
TAFIAD
TAF
KIAD 202320Z 2100/2206 35006KT P6SM SCT250
     FM210700 VRB03KT P6SM OVC110
     FM211100 07005KT P6SM -SHRA OVC060
     FM211600 05004KT 5SM -SHRA BR OVC035
     FM211900 05005KT 6SM BR OVC025
     FM220100 35004KT P6SM BKN025
     FM220200 VRB03KT P6SM BKN040
     FM220500 31005KT P6SM SCT050=

USA.gov is the U.S. government's official web portal to all federal, state and local government web resources and services.